createdAt,value
2023-01-09T00:04:14.884Z,2.72
2023-01-09T00:09:19.100Z,2.60
2023-01-09T00:14:24.120Z,3.00
2023-01-09T00:19:27.021Z,2.83
2023-01-09T00:24:31.349Z,1.60
2023-01-09T00:29:34.159Z,2.10
2023-01-09T00:34:38.359Z,1.65
2023-01-09T00:39:43.775Z,1.77
2023-01-09T00:44:52.022Z,1.83
2023-01-09T00:49:58.771Z,0.60
2023-01-09T00:55:04.008Z,0.60
2023-01-09T01:00:08.607Z,0.47
2023-01-09T01:05:29.394Z,0.50
2023-01-09T01:10:33.706Z,0.38
2023-01-09T01:15:39.348Z,0.40
2023-01-09T01:20:42.541Z,0.60
2023-01-09T01:25:46.789Z,0.50
2023-01-09T01:30:49.574Z,0.45
2023-01-09T01:35:52.350Z,0.40
2023-01-09T01:40:56.892Z,0.40
2023-01-09T01:45:59.593Z,0.40
2023-01-09T01:51:05.844Z,0.60
2023-01-09T01:56:15.292Z,0.50
2023-01-09T02:01:19.879Z,0.32
2023-01-09T02:06:22.709Z,0.43
2023-01-09T02:11:28.082Z,0.75
2023-01-09T02:16:47.763Z,1.15
2023-01-09T02:22:03.626Z,1.15
2023-01-09T02:27:18.200Z,0.40
2023-01-09T02:32:36.597Z,0.43
2023-01-09T02:37:48.445Z,0.63
2023-01-09T02:42:51.993Z,0.35
2023-01-09T02:47:56.132Z,0.45
2023-01-09T02:53:14.309Z,0.38
2023-01-09T02:58:28.327Z,0.47
2023-01-09T03:03:39.177Z,0.35
2023-01-09T03:08:45.871Z,0.50
2023-01-09T03:13:53.074Z,0.60
2023-01-09T03:24:01.884Z,0.45
2023-01-09T03:29:04.813Z,0.38
2023-01-09T03:34:09.081Z,0.50
2023-01-09T03:39:11.843Z,0.45
2023-01-09T03:44:14.616Z,0.32
2023-01-09T03:49:19.252Z,0.40
2023-01-09T03:54:22.071Z,0.40
2023-01-09T03:59:25.898Z,0.45
2023-01-09T04:04:30.218Z,0.32
2023-01-09T04:09:33.160Z,0.30
2023-01-09T04:14:36.001Z,0.43
2023-01-09T04:19:40.287Z,0.50
2023-01-09T04:24:43.121Z,0.35
2023-01-09T04:29:46.048Z,0.40
2023-01-09T04:34:50.287Z,0.40
2023-01-09T04:39:55.869Z,0.50
2023-01-09T04:44:58.952Z,0.77
2023-01-09T04:50:03.488Z,0.57
2023-01-09T04:55:07.578Z,0.40
2023-01-09T05:00:12.362Z,0.30
2023-01-09T05:05:17.147Z,1.00
2023-01-09T05:10:19.917Z,0.73
2023-01-09T05:15:22.866Z,0.50
2023-01-09T05:20:26.982Z,0.40
2023-01-09T05:25:29.945Z,0.50
2023-01-09T05:30:35.304Z,0.95
2023-01-09T05:35:41.125Z,0.60
2023-01-09T05:40:43.843Z,0.50
2023-01-09T05:45:46.655Z,1.02
2023-01-09T05:50:50.891Z,1.05
2023-01-09T05:55:53.607Z,1.17
2023-01-09T06:01:00.447Z,0.70
2023-01-09T06:06:05.648Z,1.02
2023-01-09T06:11:08.368Z,0.95
2023-01-09T06:16:11.381Z,1.98
2023-01-09T06:21:15.549Z,1.00
2023-01-09T06:26:18.561Z,1.35
2023-01-09T06:31:22.462Z,1.30
2023-01-09T06:36:26.873Z,1.23
2023-01-09T06:41:29.958Z,1.20
2023-01-09T06:46:32.860Z,2.05
2023-01-09T06:51:37.216Z,1.38
2023-01-09T06:56:40.583Z,1.65
2023-01-09T07:01:47.168Z,1.23
2023-01-09T07:06:51.413Z,0.90
2023-01-09T07:11:54.183Z,0.75
2023-01-09T07:16:57.229Z,1.95
2023-01-09T07:22:01.315Z,1.30
2023-01-09T07:27:06.819Z,0.90
2023-01-09T07:32:09.603Z,0.88
2023-01-09T07:37:17.051Z,1.42
2023-01-09T07:42:23.296Z,0.80
2023-01-09T07:47:26.312Z,0.77
2023-01-09T07:52:30.457Z,0.65
2023-01-09T07:57:33.411Z,0.77
2023-01-09T08:02:36.465Z,0.90
2023-01-09T08:07:40.935Z,1.02
2023-01-09T08:12:45.680Z,0.98
2023-01-09T08:17:49.212Z,0.73
2023-01-09T08:22:55.026Z,0.65
2023-01-09T08:27:59.685Z,1.45
2023-01-09T08:33:05.765Z,0.70
2023-01-09T08:38:09.951Z,0.70
2023-01-09T08:43:32.821Z,0.77
2023-01-09T08:48:35.716Z,1.00
2023-01-09T08:53:40.019Z,0.98
2023-01-09T08:58:43.031Z,0.75
2023-01-09T09:03:46.664Z,2.08
2023-01-09T09:08:50.805Z,1.08
2023-01-09T09:13:54.259Z,1.42
2023-01-09T09:19:00.043Z,1.98
2023-01-09T09:24:04.376Z,0.70
2023-01-09T09:29:07.314Z,1.15
2023-01-09T09:34:10.812Z,1.20
2023-01-09T09:39:14.921Z,0.90
2023-01-09T09:50:07.689Z,0.65
2023-01-09T09:55:19.314Z,0.80
2023-01-09T10:00:24.693Z,0.80
2023-01-09T10:05:35.725Z,1.23
2023-01-09T10:11:10.841Z,1.33
2023-01-09T10:16:28.994Z,1.40
2023-01-09T10:21:48.139Z,1.52
2023-01-09T10:26:54.119Z,1.00
2023-01-09T10:32:14.481Z,1.20
2023-01-09T10:37:24.148Z,1.02
2023-01-09T10:42:33.791Z,1.00
2023-01-09T10:47:40.495Z,0.95
2023-01-09T10:52:44.001Z,0.90
2023-01-09T10:57:51.808Z,0.90
2023-01-09T11:02:55.959Z,0.80
2023-01-09T11:08:02.979Z,1.17
2023-01-09T11:13:19.317Z,0.70
2023-01-09T11:18:25.700Z,0.85
2023-01-09T11:23:31.640Z,0.50
2023-01-09T11:28:35.910Z,0.73
2023-01-09T11:33:43.903Z,0.70
2023-01-09T11:38:50.774Z,0.90
2023-01-09T11:43:58.532Z,0.82
2023-01-09T11:49:04.416Z,1.13
2023-01-09T11:54:21.903Z,0.70
2023-01-09T11:59:31.887Z,1.00
2023-01-09T12:04:39.842Z,0.90
2023-01-09T12:09:53.728Z,0.70
2023-01-09T12:15:15.107Z,1.27
2023-01-09T12:20:40.165Z,0.90
2023-01-09T12:25:52.869Z,3.58
2023-01-09T12:31:14.127Z,6.03
2023-01-09T12:36:25.439Z,3.72
2023-01-09T12:41:49.601Z,3.75
2023-01-09T12:47:06.365Z,0.68
2023-01-09T12:52:13.864Z,0.60
2023-01-09T12:57:23.572Z,0.68
2023-01-09T13:02:33.753Z,0.57
2023-01-09T13:07:43.230Z,0.65
2023-01-09T13:12:49.666Z,0.80
2023-01-09T13:18:00.988Z,1.02
2023-01-09T13:23:05.973Z,1.15
2023-01-09T13:28:20.908Z,0.57
2023-01-09T13:33:30.038Z,0.90
2023-01-09T13:38:35.353Z,1.30
2023-01-09T13:43:54.385Z,2.42
2023-01-09T13:48:58.572Z,1.65
2023-01-09T13:54:01.435Z,1.30
2023-01-09T13:59:24.916Z,2.35
2023-01-09T14:04:41.953Z,0.88
2023-01-09T14:14:54.834Z,0.80
2023-01-09T14:20:03.115Z,0.68
2023-01-09T14:25:10.036Z,0.75
2023-01-09T14:30:33.140Z,0.93
2023-01-09T14:35:42.911Z,1.30
2023-01-09T14:40:49.621Z,0.80
2023-01-09T14:45:55.582Z,0.80
2023-01-09T14:51:00.126Z,0.70
2023-01-09T14:56:06.665Z,1.00
2023-01-09T15:01:19.375Z,0.70
2023-01-09T15:06:26.449Z,0.60
2023-01-09T15:11:30.216Z,0.60
2023-01-09T15:16:33.769Z,0.82
2023-01-09T15:21:37.968Z,1.10
2023-01-09T15:26:41.115Z,1.02
2023-01-09T15:31:50.460Z,1.00
2023-01-09T15:36:54.903Z,0.70
2023-01-09T15:42:18.853Z,2.10
2023-01-09T15:47:28.046Z,4.55
2023-01-09T15:52:32.774Z,2.83
2023-01-09T15:57:35.794Z,1.80
2023-01-09T16:02:56.084Z,2.13
2023-01-09T16:08:01.925Z,1.60
2023-01-09T16:13:04.808Z,1.15
2023-01-09T16:18:19.154Z,1.13
2023-01-09T16:23:30.686Z,1.52
2023-01-09T16:28:33.825Z,1.65
2023-01-09T16:33:37.656Z,2.40
2023-01-09T16:38:44.626Z,3.05
2023-01-09T16:43:48.058Z,7.88
2023-01-09T16:54:00.054Z,11.23
2023-01-09T16:59:03.001Z,12.30
2023-01-09T17:04:12.652Z,9.48
2023-01-09T17:09:18.917Z,7.68
2023-01-09T17:19:25.425Z,1.95
2023-01-09T17:24:48.019Z,2.45
2023-01-09T17:29:50.826Z,3.13
2023-01-09T17:34:53.730Z,5.35
2023-01-09T17:40:04.108Z,3.55
2023-01-09T17:45:08.444Z,2.60
2023-01-09T17:50:18.504Z,2.30
2023-01-09T17:55:22.630Z,7.07
2023-01-09T18:00:28.396Z,5.80
2023-01-09T18:05:36.950Z,4.13
2023-01-09T18:10:43.021Z,4.82
2023-01-09T18:15:47.429Z,1.90
2023-01-09T18:20:50.959Z,2.13
2023-01-09T18:25:55.181Z,1.80
2023-01-09T18:30:59.160Z,1.80
2023-01-09T18:36:07.152Z,5.15
2023-01-09T18:41:11.552Z,2.17
2023-01-09T18:46:16.182Z,8.73
2023-01-09T18:51:18.945Z,2.88
2023-01-09T18:56:24.795Z,2.22
2023-01-09T19:01:29.134Z,2.00
2023-01-09T19:06:32.311Z,2.20
2023-01-09T19:11:44.262Z,2.50
2023-01-09T19:21:49.888Z,3.58
2023-01-09T19:26:54.626Z,1.98
2023-01-09T19:31:58.697Z,2.17
2023-01-09T19:37:01.722Z,2.42
2023-01-09T19:42:07.489Z,1.95
2023-01-09T19:47:14.736Z,2.40
2023-01-09T19:52:22.002Z,3.20
2023-01-09T19:57:30.144Z,3.43
2023-01-09T20:02:33.785Z,3.30
2023-01-09T20:07:37.208Z,2.40
2023-01-09T20:12:42.591Z,1.55
2023-01-09T20:17:45.881Z,1.70
2023-01-09T20:22:48.671Z,5.30
2023-01-09T20:27:52.837Z,3.05
2023-01-09T20:32:55.785Z,1.33
2023-01-09T20:37:58.878Z,1.95
2023-01-09T20:43:03.767Z,2.00
2023-01-09T20:48:07.105Z,2.00
2023-01-09T20:53:09.916Z,1.70
2023-01-09T20:58:14.202Z,2.10
2023-01-09T21:03:17.184Z,4.65
2023-01-09T21:08:20.012Z,1.13
2023-01-09T21:13:24.163Z,5.50
2023-01-09T21:18:26.960Z,1.90
2023-01-09T21:23:30.906Z,2.10
2023-01-09T21:28:41.679Z,3.17
2023-01-09T21:33:45.056Z,2.42
2023-01-09T21:38:48.767Z,3.50
2023-01-09T21:44:10.449Z,1.95
2023-01-09T21:49:13.356Z,2.50
2023-01-09T21:54:16.371Z,2.53
2023-01-09T21:59:21.261Z,2.13
2023-01-09T22:04:28.229Z,4.68
2023-01-09T22:14:35.141Z,2.72
2023-01-09T22:19:37.999Z,4.38
2023-01-09T22:24:41.284Z,1.50
2023-01-09T22:29:45.355Z,2.00
2023-01-09T22:34:48.156Z,1.52
2023-01-09T22:39:50.998Z,1.48
2023-01-09T22:44:55.179Z,2.38
2023-01-09T22:49:57.967Z,1.77
2023-01-09T22:55:00.837Z,1.90
2023-01-09T23:00:08.366Z,2.60
2023-01-09T23:05:12.320Z,3.08
2023-01-09T23:10:15.098Z,2.13
2023-01-09T23:15:19.430Z,2.08
2023-01-09T23:20:22.196Z,2.05
2023-01-09T23:25:24.940Z,1.55
2023-01-09T23:30:28.998Z,1.98
2023-01-09T23:35:31.801Z,1.92
2023-01-09T23:40:36.840Z,2.45
2023-01-09T23:45:42.583Z,1.80
2023-01-09T23:50:50.046Z,2.60
2023-01-09T23:55:55.596Z,1.95
